Time;durP1;ratioP1;P1;durP2;ratioP2;P2;SDS_P1;SDS_P2;PMS_P1;PMS_P2;Temp;Humidity;BMP_temperature;BMP_pressure;BME280_temperature;BME280_humidity;BME280_pressure;Samples;Min_cycle;Max_cycle;Signal;HPM_P1;HPM_P2
2022/02/15 00:01:16;;;;;;;5.00;1.10;;;;;;;6.30;76.23;99803.20;107969;1279;60634;-80
2022/02/15 00:03:42;;;;;;;4.10;1.10;;;;;;;6.31;76.11;99805.92;107870;1279;72907;-80
2022/02/15 00:06:09;;;;;;;1.90;0.70;;;;;;;6.31;76.30;99806.62;107921;1278;61457;-79
2022/02/15 00:08:35;;;;;;;3.50;1.10;;;;;;;6.30;76.25;99809.59;108068;1278;59094;-79
2022/02/15 00:11:02;;;;;;;3.20;0.70;;;;;;;6.28;76.20;99806.84;108026;1278;59348;-79
2022/02/15 00:13:28;;;;;;;3.70;0.80;;;;;;;6.27;76.27;99807.95;107939;1279;59087;-79
2022/02/15 00:15:55;;;;;;;6.60;1.40;;;;;;;6.26;76.39;99805.52;108072;1278;59353;-79
2022/02/15 00:18:21;;;;;;;3.20;0.80;;;;;;;6.23;76.35;99811.78;107915;1277;59897;-79
2022/02/15 00:20:48;;;;;;;4.90;0.90;;;;;;;6.21;76.62;99813.80;108081;1278;59216;-79
2022/02/15 00:23:14;;;;;;;3.60;0.80;;;;;;;6.16;76.64;99810.73;108037;1278;59541;-78
2022/02/15 00:25:41;;;;;;;2.70;0.60;;;;;;;6.14;76.86;99815.35;107974;1279;59116;-79
2022/02/15 00:28:07;;;;;;;1.30;0.60;;;;;;;6.14;76.88;99813.94;108055;1278;59196;-79
2022/02/15 00:30:34;;;;;;;4.50;0.80;;;;;;;6.16;77.00;99815.32;107952;1278;58981;-79
2022/02/15 00:33:00;;;;;;;4.00;0.80;;;;;;;6.17;77.02;99818.77;108025;1277;59159;-78
2022/02/15 00:35:27;;;;;;;1.90;0.90;;;;;;;6.20;77.10;99813.63;108086;1278;59906;-78
2022/02/15 00:37:53;;;;;;;5.60;0.90;;;;;;;6.24;76.83;99817.67;108029;1277;59555;-79
2022/02/15 00:40:20;;;;;;;4.10;0.90;;;;;;;6.27;76.58;99812.86;108018;1278;59185;-79
2022/02/15 00:42:47;;;;;;;3.70;1.00;;;;;;;6.30;76.45;99815.71;108041;1278;59084;-79
2022/02/15 00:45:14;;;;;;;2.40;0.80;;;;;;;6.33;76.49;99821.20;108056;1278;60644;-78
2022/02/15 00:47:41;;;;;;;4.70;1.10;;;;;;;6.34;76.21;99822.15;107708;1279;74885;-79
2022/02/15 00:50:09;;;;;;;2.90;0.70;;;;;;;6.34;76.36;99820.23;107741;1281;72646;-79
2022/02/15 00:52:35;;;;;;;2.80;0.90;;;;;;;6.32;76.49;99823.70;107622;1281;74196;-79
2022/02/15 00:55:04;;;;;;;4.90;1.00;;;;;;;6.33;76.18;99823.14;107879;1279;59110;-78
2022/02/15 00:57:30;;;;;;;3.30;0.90;;;;;;;6.33;76.40;99832.98;108003;1264;60604;-78
2022/02/15 00:59:57;;;;;;;5.80;1.40;;;;;;;6.35;76.45;99837.73;108186;1267;76230;-79
2022/02/15 01:02:23;;;;;;;3.50;1.10;;;;;;;6.37;76.43;99837.45;108180;1276;59073;-78
2022/02/15 01:04:50;;;;;;;2.80;0.70;;;;;;;6.38;76.28;99840.86;108166;1276;59318;-79
2022/02/15 01:07:16;;;;;;;4.00;0.90;;;;;;;6.35;76.25;99841.85;108108;1276;61457;-78
2022/02/15 01:09:43;;;;;;;3.50;0.90;;;;;;;6.32;76.66;99842.20;108188;1276;59013;-79
2022/02/15 01:12:10;;;;;;;5.50;1.50;;;;;;;6.31;76.52;99841.05;108172;1275;74159;-79
2022/02/15 01:14:38;;;;;;;3.30;0.90;;;;;;;6.32;76.46;99846.91;108239;1276;72684;-79
2022/02/15 01:17:05;;;;;;;2.70;0.70;;;;;;;6.32;76.60;99847.25;108115;1276;74123;-79
2022/02/15 01:19:31;;;;;;;4.90;1.00;;;;;;;6.29;76.55;99848.27;107980;1276;62619;-79
2022/02/15 01:21:58;;;;;;;4.80;0.90;;;;;;;6.27;76.40;99849.58;108156;1276;61521;-78
2022/02/15 01:24:24;;;;;;;2.80;1.30;;;;;;;6.25;76.57;99853.01;108199;1276;59154;-79
2022/02/15 01:26:51;;;;;;;4.20;0.90;;;;;;;6.20;76.71;99855.71;108007;1278;59027;-79
2022/02/15 01:29:17;;;;;;;3.10;1.40;;;;;;;6.14;76.98;99860.12;107904;1277;72859;-79
2022/02/15 01:31:44;;;;;;;3.40;1.30;;;;;;;6.10;77.20;99859.53;108206;1276;61574;-79
2022/02/15 01:34:11;;;;;;;2.30;0.90;;;;;;;6.05;77.22;99864.57;108235;1275;59095;-79
2022/02/15 01:36:38;;;;;;;6.50;1.40;;;;;;;6.01;77.38;99864.48;108215;1277;76169;-79
2022/02/15 01:39:04;;;;;;;6.30;1.00;;;;;;;5.97;77.56;99867.90;108211;1276;72494;-79
2022/02/15 01:41:31;;;;;;;3.00;0.90;;;;;;;5.93;77.72;99867.59;108158;1276;59513;-79
2022/02/15 01:43:58;;;;;;;4.50;0.80;;;;;;;5.90;78.14;99867.29;108195;1276;62199;-79
2022/02/15 01:46:24;;;;;;;5.90;1.40;;;;;;;5.88;78.12;99863.79;108160;1276;60422;-79
2022/02/15 01:48:51;;;;;;;5.90;1.30;;;;;;;5.85;78.20;99862.73;108174;1276;75020;-78
2022/02/15 01:51:17;;;;;;;3.70;1.10;;;;;;;5.81;78.33;99865.25;107942;1277;71507;-78
2022/02/15 01:53:44;;;;;;;3.30;1.10;;;;;;;5.78;78.68;99861.23;108188;1276;74081;-78
2022/02/15 01:56:13;;;;;;;5.70;1.20;;;;;;;5.76;79.07;99857.21;108103;1276;58977;-79
2022/02/15 01:58:42;;;;;;;3.50;0.90;;;;;;;5.78;79.23;99861.16;108101;1268;60745;-79
2022/02/15 02:01:08;;;;;;;4.70;1.30;;;;;;;5.82;79.31;99859.88;108166;1264;74905;-79
2022/02/15 02:03:35;;;;;;;3.20;1.20;;;;;;;5.86;79.21;99858.90;108015;1277;71424;-79
2022/02/15 02:06:01;;;;;;;5.40;1.00;;;;;;;5.88;79.12;99858.70;108171;1276;59825;-79
2022/02/15 02:08:31;;;;;;;2.90;1.10;;;;;;;5.90;79.12;99860.41;108196;1277;61262;-80
2022/02/15 02:11:00;;;;;;;3.20;0.90;;;;;;;5.91;79.22;99867.61;108120;1278;60386;-78
2022/02/15 02:13:27;;;;;;;7.40;1.30;;;;;;;5.93;79.22;99869.75;108083;1277;76095;-78
2022/02/15 02:15:53;;;;;;;5.70;1.10;;;;;;;5.94;79.15;99868.11;107994;1277;71484;-78
2022/02/15 02:18:20;;;;;;;6.20;1.50;;;;;;;5.94;79.39;99870.92;108242;1276;59146;-79
2022/02/15 02:20:47;;;;;;;6.60;1.70;;;;;;;5.96;79.46;99872.85;108100;1277;59601;-79
2022/02/15 02:23:20;;;;;;;5.20;1.50;;;;;;;6.00;79.60;99876.55;107800;1277;61533;-79
2022/02/15 02:25:47;;;;;;;5.30;1.70;;;;;;;6.05;79.45;99879.15;108254;1276;75971;-80
2022/02/15 02:28:14;;;;;;;3.00;0.90;;;;;;;6.09;79.40;99880.63;108013;1278;71561;-79
2022/02/15 02:30:40;;;;;;;4.80;1.50;;;;;;;6.13;79.25;99883.89;108109;1277;73988;-79
2022/02/15 02:33:07;;;;;;;4.00;1.10;;;;;;;6.17;79.36;99884.73;108214;1276;59628;-78
2022/02/15 02:35:35;;;;;;;5.50;1.70;;;;;;;6.21;79.20;99887.08;108163;1277;58972;-79
2022/02/15 02:38:02;;;;;;;3.30;1.80;;;;;;;6.25;79.15;99890.16;108184;1276;75043;-79
2022/02/15 02:40:28;;;;;;;5.60;2.20;;;;;;;6.29;79.08;99882.15;108126;1277;72506;-79
2022/02/15 02:42:55;;;;;;;5.30;2.30;;;;;;;6.32;78.93;99884.81;108076;1277;73181;-79
2022/02/15 02:45:23;;;;;;;6.50;2.70;;;;;;;6.36;78.92;99881.85;108208;1276;59119;-79
2022/02/15 02:47:52;;;;;;;5.80;2.00;;;;;;;6.38;78.90;99880.48;108240;1276;61693;-79
2022/02/15 02:50:21;;;;;;;3.10;1.60;;;;;;;6.40;78.85;99880.66;108212;1277;76084;-79
2022/02/15 02:52:48;;;;;;;4.70;1.80;;;;;;;6.43;78.85;99882.23;108077;1277;72413;-79
2022/02/15 02:55:14;;;;;;;8.40;3.70;;;;;;;6.46;78.67;99880.33;108111;1277;73146;-80
2022/02/15 02:57:41;;;;;;;7.50;2.90;;;;;;;6.49;78.17;99882.81;108167;1277;59695;-79
2022/02/15 03:00:10;;;;;;;6.30;3.20;;;;;;;6.49;78.23;99878.96;108012;1278;59225;-78
2022/02/15 03:02:37;;;;;;;4.90;3.10;;;;;;;6.51;77.96;99886.09;107902;1277;75989;-78
2022/02/15 03:05:04;;;;;;;9.00;4.00;;;;;;;6.52;77.87;99885.61;108133;1277;72387;-78
2022/02/15 03:07:31;;;;;;;6.80;3.60;;;;;;;6.53;77.94;99881.64;108191;1277;74002;-78
2022/02/15 03:09:58;;;;;;;6.50;3.30;;;;;;;6.55;78.30;99883.99;108122;1277;60428;-79
2022/02/15 03:12:24;;;;;;;6.80;3.90;;;;;;;6.56;78.08;99883.64;108086;1277;59560;-79
2022/02/15 03:14:51;;;;;;;4.90;2.60;;;;;;;6.56;78.25;99883.72;108151;1276;59075;-79
2022/02/15 03:17:17;;;;;;;4.90;3.50;;;;;;;6.54;77.99;99889.01;108098;1277;71211;-80
2022/02/15 03:19:44;;;;;;;5.30;3.50;;;;;;;6.52;77.96;99879.31;108075;1277;59168;-79
2022/02/15 03:22:11;;;;;;;6.80;3.80;;;;;;;6.50;77.72;99872.13;108081;1277;60445;-79
2022/02/15 03:24:38;;;;;;;5.90;3.10;;;;;;;6.50;77.37;99881.32;108130;1277;59114;-79
2022/02/15 03:27:04;;;;;;;6.70;3.50;;;;;;;6.49;77.12;99880.87;108142;1277;76104;-79
2022/02/15 03:29:31;;;;;;;5.80;3.20;;;;;;;6.48;76.66;99880.84;108194;1277;71456;-80
2022/02/15 03:31:58;;;;;;;4.50;3.40;;;;;;;6.45;76.52;99892.54;108133;1276;72923;-80
2022/02/15 03:34:24;;;;;;;9.00;4.70;;;;;;;6.44;76.74;99893.91;108079;1277;59560;-79
2022/02/15 03:36:51;;;;;;;6.90;3.70;;;;;;;6.43;76.79;99895.08;108096;1277;59192;-80
2022/02/15 03:39:19;;;;;;;8.90;4.00;;;;;;;6.40;76.84;99906.87;108206;1277;76040;-79
2022/02/15 03:44:32;;;;;;;12.10;4.90;;;;;;;6.32;77.26;99907.51;108166;1277;73009;-79
2022/02/15 03:46:58;;;;;;;8.60;4.60;;;;;;;6.27;77.97;99915.84;108222;1277;60993;-79
2022/02/15 03:49:25;;;;;;;9.80;5.50;;;;;;;6.22;78.03;99917.75;107955;1278;61834;-80
2022/02/15 03:51:51;;;;;;;7.90;3.50;;;;;;;6.17;78.18;99913.34;107944;1277;74637;-79
2022/02/15 03:54:18;;;;;;;7.50;4.60;;;;;;;6.14;78.39;99918.02;108237;1277;59092;-79
2022/02/15 03:56:45;;;;;;;7.40;3.30;;;;;;;6.10;78.43;99922.11;108187;1277;71974;-79
2022/02/15 03:59:11;;;;;;;11.20;4.60;;;;;;;6.08;78.48;99922.77;108189;1277;61551;-79
2022/02/15 04:01:38;;;;;;;8.80;4.20;;;;;;;6.07;78.43;99923.02;108082;1277;59429;-79
2022/02/15 04:04:05;;;;;;;9.70;4.30;;;;;;;6.08;78.54;99925.75;108186;1277;74955;-79
2022/02/15 04:06:32;;;;;;;7.80;3.50;;;;;;;6.08;78.45;99929.88;107976;1277;70909;-80
2022/02/15 04:08:59;;;;;;;7.90;3.80;;;;;;;6.10;78.40;99933.79;108035;1277;74636;-80
2022/02/15 04:11:25;;;;;;;8.30;2.50;;;;;;;6.11;78.48;99939.09;108071;1277;60281;-79
2022/02/15 04:13:52;;;;;;;4.50;2.70;;;;;;;6.15;78.13;99942.54;108073;1277;61522;-79
2022/02/15 04:16:19;;;;;;;5.10;3.00;;;;;;;6.19;77.92;99940.41;108137;1277;75994;-79
2022/02/15 04:18:47;;;;;;;6.90;3.60;;;;;;;6.22;77.79;99947.73;108140;1277;71506;-80
2022/02/15 04:21:16;;;;;;;6.90;3.80;;;;;;;6.26;77.30;99953.80;108203;1277;73942;-79
2022/02/15 04:23:42;;;;;;;7.40;3.50;;;;;;;6.31;76.83;99953.59;108108;1277;62752;-79
2022/02/15 04:26:09;;;;;;;5.80;2.60;;;;;;;6.34;76.78;99951.95;108141;1277;59760;-79
2022/02/15 04:28:35;;;;;;;8.40;3.00;;;;;;;6.36;76.55;99957.15;108218;1277;59071;-79
2022/02/15 04:31:02;;;;;;;4.30;2.40;;;;;;;6.38;76.45;99959.95;108176;1277;71557;-79
2022/02/15 04:33:29;;;;;;;6.50;3.10;;;;;;;6.39;76.37;99964.23;107984;1277;72976;-80
2022/02/15 04:35:55;;;;;;;7.40;2.80;;;;;;;6.40;76.41;99964.23;108268;1276;58598;-79
2022/02/15 04:38:22;;;;;;;5.10;2.20;;;;;;;6.41;76.29;99973.28;107735;1277;60630;-79
2022/02/15 04:40:49;;;;;;;4.40;2.60;;;;;;;6.42;76.31;99974.64;108213;1276;74877;-80
2022/02/15 04:43:15;;;;;;;9.30;3.40;;;;;;;6.42;76.55;99981.29;108242;1276;71297;-80
2022/02/15 04:45:42;;;;;;;8.50;3.60;;;;;;;6.41;76.45;99986.59;108268;1277;73544;-79
2022/02/15 04:48:08;;;;;;;4.30;2.60;;;;;;;6.43;76.30;99991.20;108144;1277;59352;-80
2022/02/15 04:50:35;;;;;;;6.40;2.80;;;;;;;6.44;76.46;99992.67;108197;1275;59380;-80
2022/02/15 04:53:02;;;;;;;7.00;3.70;;;;;;;6.44;76.51;99998.11;108214;1277;76354;-80
2022/02/15 04:55:29;;;;;;;8.50;3.10;;;;;;;6.44;76.75;99996.51;108203;1277;70578;-80
2022/02/15 04:57:55;;;;;;;5.50;2.90;;;;;;;6.43;76.77;100000.45;108204;1277;59040;-79
2022/02/15 05:00:22;;;;;;;5.80;3.30;;;;;;;6.42;77.09;100013.52;108245;1277;61561;-79
2022/02/15 05:02:48;;;;;;;6.40;3.10;;;;;;;6.40;77.23;100015.31;108202;1277;60549;-79
2022/02/15 05:05:15;;;;;;;6.70;3.50;;;;;;;6.39;77.40;100022.16;108250;1276;61153;-79
2022/02/15 05:07:41;;;;;;;5.70;2.60;;;;;;;6.38;77.61;100025.75;108136;1277;59213;-79
2022/02/15 05:10:09;;;;;;;6.00;3.80;;;;;;;6.36;77.74;100026.11;107901;1277;59252;-79
2022/02/15 05:12:37;;;;;;;5.60;3.30;;;;;;;6.36;77.96;100031.23;108161;1277;62470;-80
2022/02/15 05:15:10;;;;;;;5.40;3.10;;;;;;;6.36;78.08;100031.67;108214;1277;60589;-80
2022/02/15 05:17:43;;;;;;;8.50;3.70;;;;;;;6.35;78.47;100033.85;108107;1276;76058;-80
2022/02/15 05:20:12;;;;;;;7.20;3.90;;;;;;;6.34;78.33;100035.85;108000;1277;72476;-79
2022/02/15 05:22:39;;;;;;;9.50;3.60;;;;;;;6.33;78.74;100041.55;108004;1277;73961;-79
2022/02/15 05:25:06;;;;;;;9.10;3.50;;;;;;;6.32;79.02;100038.68;108236;1277;59994;-79
2022/02/15 05:27:32;;;;;;;11.00;4.30;;;;;;;6.31;79.31;100041.05;108264;1276;60575;-79
2022/02/15 05:29:59;;;;;;;6.00;3.90;;;;;;;6.31;79.50;100042.47;108175;1277;74099;-80
2022/02/15 05:32:27;;;;;;;9.70;4.30;;;;;;;6.31;79.55;100042.86;108203;1276;72545;-80
2022/02/15 05:34:54;;;;;;;7.20;4.80;;;;;;;6.31;79.73;100048.85;108238;1276;72999;-80
2022/02/15 05:37:21;;;;;;;10.50;4.40;;;;;;;6.29;79.75;100053.56;107956;1277;61568;-80
2022/02/15 05:39:47;;;;;;;10.30;5.10;;;;;;;6.30;80.10;100055.98;107896;1277;61700;-79
2022/02/15 05:42:14;;;;;;;6.30;3.40;;;;;;;6.29;80.05;100055.90;108201;1276;76186;-80
2022/02/15 05:44:40;;;;;;;12.00;4.50;;;;;;;6.29;79.99;100061.30;108157;1277;59210;-80
2022/02/15 05:47:07;;;;;;;12.80;5.60;;;;;;;6.29;80.30;100062.05;107919;1277;72886;-80
2022/02/15 05:50:49;;;;;;;7.70;3.80;;;;;;;6.28;80.21;100059.33;108007;1277;62476;-80
2022/02/15 05:52:20;;;;;;;11.00;4.60;;;;;;;6.28;80.24;100062.16;108267;1277;60894;-79
2022/02/15 05:54:47;;;;;;;12.10;5.10;;;;;;;6.27;80.56;100064.66;107980;1277;75057;-79
2022/02/15 05:57:14;;;;;;;8.70;5.50;;;;;;;6.27;80.59;100067.36;108241;1276;71314;-79
2022/02/15 05:59:41;;;;;;;9.40;4.60;;;;;;;6.27;80.60;100066.84;108239;1277;73002;-79
2022/02/15 06:02:08;;;;;;;8.90;4.20;;;;;;;6.26;80.51;100071.81;108218;1277;59910;-80
2022/02/15 06:04:35;;;;;;;13.80;4.30;;;;;;;6.26;80.69;100068.64;108032;1277;60579;-79
2022/02/15 06:07:04;;;;;;;9.80;6.00;;;;;;;6.26;80.82;100069.92;108197;1277;75034;-79
2022/02/15 06:09:31;;;;;;;8.20;5.70;;;;;;;6.26;81.00;100071.54;108189;1265;71438;-79
2022/02/15 06:11:58;;;;;;;17.10;5.70;;;;;;;6.25;81.00;100077.52;107916;1274;72977;-80
2022/02/15 06:14:25;;;;;;;9.40;5.70;;;;;;;6.25;81.02;100078.98;108000;1278;61429;-79
2022/02/15 06:16:52;;;;;;;10.20;6.30;;;;;;;6.26;80.99;100082.93;108005;1279;61763;-79
2022/02/15 06:19:18;;;;;;;10.00;5.40;;;;;;;6.25;81.00;100082.80;108020;1278;75096;-79
2022/02/15 06:21:46;;;;;;;12.20;6.30;;;;;;;6.25;81.08;100087.73;108027;1279;60396;-79
2022/02/15 06:24:13;;;;;;;12.20;5.20;;;;;;;6.25;81.18;100085.46;108031;1279;72998;-79
2022/02/15 06:27:02;;;;;;;11.40;5.80;;;;;;;6.25;81.31;100090.23;107937;1278;61335;-79
2022/02/15 06:29:29;;;;;;;9.40;5.30;;;;;;;6.24;81.42;100089.91;107915;1279;61638;-79
2022/02/15 06:31:56;;;;;;;10.20;5.30;;;;;;;6.24;81.32;100097.80;107812;1279;76435;-79
2022/02/15 06:34:24;;;;;;;8.50;5.70;;;;;;;6.24;81.40;100103.11;107933;1279;72353;-79
2022/02/15 06:36:51;;;;;;;11.10;5.30;;;;;;;6.24;81.43;100108.88;108002;1278;74205;-79
2022/02/15 06:39:18;;;;;;;12.60;7.30;;;;;;;6.24;81.52;100113.51;107885;1277;62221;-79
2022/02/15 06:41:45;;;;;;;7.90;5.20;;;;;;;6.23;81.78;100117.09;108007;1278;59327;-78
2022/02/15 06:44:12;;;;;;;10.00;6.30;;;;;;;6.24;81.78;100126.09;108052;1278;76032;-79
2022/02/15 06:46:38;;;;;;;10.60;5.80;;;;;;;6.25;82.05;100130.44;108148;1278;71661;-79
2022/02/15 06:49:05;;;;;;;12.10;7.20;;;;;;;6.26;81.78;100131.23;107949;1278;73970;-78
2022/02/15 06:51:31;;;;;;;9.70;5.40;;;;;;;6.26;81.87;100134.13;107858;1279;59116;-78
2022/02/15 06:53:58;;;;;;;12.50;6.90;;;;;;;6.27;82.02;100137.07;107961;1279;59127;-78
2022/02/15 06:56:25;;;;;;;15.30;7.50;;;;;;;6.26;82.06;100144.14;108035;1279;76767;-78
2022/02/15 06:58:51;;;;;;;16.40;8.20;;;;;;;6.26;82.18;100144.33;107996;1279;58449;-78
2022/02/15 07:01:19;;;;;;;16.60;6.40;;;;;;;6.25;82.18;100143.88;108122;1277;73239;-78
2022/02/15 07:03:45;;;;;;;13.20;5.70;;;;;;;6.25;82.24;100146.52;108071;1277;61417;-78
2022/02/15 07:06:12;;;;;;;13.40;6.90;;;;;;;6.24;82.64;100147.34;108110;1277;58950;-79
2022/02/15 07:08:38;;;;;;;13.10;7.10;;;;;;;6.25;82.86;100150.09;108069;1277;59098;-78
2022/02/15 07:11:05;;;;;;;10.20;5.60;;;;;;;6.24;82.66;100155.29;107986;1279;59734;-79
2022/02/15 07:13:32;;;;;;;12.90;8.50;;;;;;;6.22;83.02;100160.42;108048;1278;72220;-79
2022/02/15 07:15:58;;;;;;;9.60;5.70;;;;;;;6.21;83.17;100165.77;107992;1279;62684;-78
2022/02/15 07:18:26;;;;;;;13.30;5.80;;;;;;;6.20;83.07;100172.02;108044;1279;59245;-78
2022/02/15 07:20:52;;;;;;;14.30;7.10;;;;;;;6.19;83.42;100176.02;108043;1279;74998;-78
2022/02/15 07:23:19;;;;;;;15.10;6.80;;;;;;;6.19;83.33;100178.80;108080;1279;71964;-79
2022/02/15 07:25:45;;;;;;;19.00;7.70;;;;;;;6.19;83.48;100179.17;108051;1278;72937;-78
2022/02/15 07:28:12;;;;;;;16.00;7.30;;;;;;;6.19;83.43;100184.56;107935;1279;61561;-79
2022/02/15 07:30:38;;;;;;;10.20;6.10;;;;;;;6.19;83.67;100184.45;108089;1277;59438;-77
2022/02/15 07:33:05;;;;;;;19.70;8.10;;;;;;;6.19;83.79;100190.70;108067;1277;59178;-79
2022/02/15 07:35:31;;;;;;;13.80;8.00;;;;;;;6.20;83.84;100189.45;108077;1279;59072;-78
2022/02/15 07:37:58;;;;;;;15.30;8.20;;;;;;;6.21;83.92;100196.36;108085;1279;59082;-78
2022/02/15 07:40:24;;;;;;;13.00;7.90;;;;;;;6.21;83.67;100191.20;108062;1278;59079;-78
2022/02/15 07:42:51;;;;;;;16.70;7.90;;;;;;;6.25;83.82;100192.11;108104;1279;58967;-77
2022/02/15 07:45:19;;;;;;;14.20;7.40;;;;;;;6.27;83.51;100198.14;108061;1279;76034;-77
2022/02/15 07:47:50;;;;;;;17.40;8.40;;;;;;;6.33;83.41;100198.08;107997;1279;71303;-77
2022/02/15 07:50:19;;;;;;;14.30;7.80;;;;;;;6.37;83.32;100203.95;108093;1278;72948;-78
2022/02/15 07:52:47;;;;;;;10.00;6.10;;;;;;;6.42;83.14;100208.39;108144;1279;62421;-79
2022/02/15 07:55:14;;;;;;;13.20;7.70;;;;;;;6.45;82.88;100212.75;108092;1279;60989;-79
2022/02/15 07:57:41;;;;;;;11.30;7.20;;;;;;;6.48;82.88;100215.79;107903;1279;74971;-79
2022/02/15 08:00:08;;;;;;;10.40;7.30;;;;;;;6.51;82.57;100215.30;108042;1277;72371;-78
2022/02/15 08:02:35;;;;;;;8.80;5.10;;;;;;;6.54;82.49;100217.46;108084;1278;72987;-79
2022/02/15 08:05:01;;;;;;;12.80;6.90;;;;;;;6.58;82.35;100218.70;108041;1277;59567;-79
2022/02/15 08:07:32;;;;;;;13.80;7.50;;;;;;;6.62;82.23;100224.60;108089;1279;59103;-79
2022/02/15 08:09:59;;;;;;;13.30;7.30;;;;;;;6.66;82.25;100228.55;108123;1278;76647;-79
2022/02/15 08:12:26;;;;;;;17.10;9.70;;;;;;;6.68;82.13;100230.23;108086;1279;71493;-79
2022/02/15 08:14:52;;;;;;;15.90;6.80;;;;;;;6.71;81.92;100229.42;107987;1279;73074;-78
2022/02/15 08:17:19;;;;;;;14.50;8.00;;;;;;;6.73;81.85;100229.88;108098;1279;59139;-78
2022/02/15 08:19:45;;;;;;;13.50;7.50;;;;;;;6.76;81.92;100233.66;108077;1279;59170;-78
2022/02/15 08:22:12;;;;;;;15.10;8.40;;;;;;;6.79;81.55;100229.77;108036;1279;59509;-79
2022/02/15 08:24:40;;;;;;;14.50;8.20;;;;;;;6.81;81.49;100231.13;107991;1279;71107;-80
2022/02/15 08:27:09;;;;;;;11.60;7.20;;;;;;;6.83;81.28;100233.08;108077;1279;72937;-78
2022/02/15 08:29:35;;;;;;;13.00;6.40;;;;;;;6.84;81.36;100233.29;108070;1279;58864;-79
2022/02/15 08:32:02;;;;;;;17.10;8.80;;;;;;;6.87;81.32;100237.95;108039;1278;59183;-79
2022/02/15 08:34:28;;;;;;;16.70;7.70;;;;;;;6.88;81.12;100244.31;108108;1279;75054;-79
2022/02/15 08:36:55;;;;;;;16.00;7.90;;;;;;;6.89;81.06;100246.77;108132;1278;59261;-78
2022/02/15 08:39:22;;;;;;;15.30;7.00;;;;;;;6.89;80.37;100248.02;108052;1279;73009;-78
2022/02/15 08:41:48;;;;;;;11.50;6.30;;;;;;;6.90;80.93;100250.06;108170;1277;58958;-79
2022/02/15 08:44:15;;;;;;;14.40;7.40;;;;;;;6.91;80.63;100252.27;108105;1277;59295;-79
2022/02/15 08:46:43;;;;;;;18.30;9.50;;;;;;;6.91;80.61;100253.10;108115;1277;75770;-79
2022/02/15 08:49:10;;;;;;;12.50;7.30;;;;;;;6.93;80.72;100252.05;108100;1278;58993;-79
2022/02/15 08:51:38;;;;;;;12.80;8.10;;;;;;;6.96;80.62;100253.20;107868;1279;59523;-78
2022/02/15 08:54:05;;;;;;;13.60;8.20;;;;;;;6.97;80.75;100254.36;107970;1279;62597;-79
2022/02/15 08:56:32;;;;;;;17.30;8.00;;;;;;;7.00;80.51;100252.59;108081;1279;60769;-79
2022/02/15 08:58:58;;;;;;;15.10;9.10;;;;;;;7.03;80.72;100256.50;107990;1279;74989;-79
2022/02/15 09:01:26;;;;;;;12.40;7.90;;;;;;;7.06;80.19;100257.38;108078;1279;72500;-79
2022/02/15 09:03:52;;;;;;;14.10;7.80;;;;;;;7.10;80.27;100258.83;107937;1279;73945;-79
2022/02/15 09:06:19;;;;;;;15.60;9.80;;;;;;;7.15;79.91;100260.65;107955;1279;62012;-79
2022/02/15 09:08:45;;;;;;;15.30;8.40;;;;;;;7.17;79.31;100260.61;107705;1279;387919;-80
2022/02/15 09:11:12;;;;;;;17.40;8.70;;;;;;;7.23;79.61;100258.78;108129;1279;59372;-79
2022/02/15 09:13:38;;;;;;;20.20;9.20;;;;;;;7.26;78.97;100252.94;108070;1278;59415;-79
2022/02/15 09:16:05;;;;;;;13.30;7.90;;;;;;;7.33;79.13;100257.76;108103;1279;59101;-79
2022/02/15 09:18:31;;;;;;;14.70;7.80;;;;;;;7.41;78.44;100263.20;108092;1279;59107;-79
2022/02/15 09:20:58;;;;;;;12.30;7.70;;;;;;;7.49;78.34;100257.03;108168;1279;58985;-78
2022/02/15 09:23:24;;;;;;;10.80;6.40;;;;;;;7.57;77.79;100255.75;108023;1279;59051;-79
2022/02/15 09:26:12;;;;;;;12.90;7.50;;;;;;;7.74;77.46;100266.10;108053;1279;72272;-80
2022/02/15 09:28:38;;;;;;;13.00;7.40;;;;;;;7.90;77.07;100259.00;108057;1279;72841;-79
2022/02/15 09:31:05;;;;;;;12.30;6.90;;;;;;;8.08;75.90;100257.64;108083;1279;60018;-79
2022/02/15 09:33:31;;;;;;;15.90;8.10;;;;;;;8.12;75.29;100263.34;108098;1279;60319;-80
2022/02/15 09:36:23;;;;;;;8.10;5.70;;;;;;;8.10;74.62;100273.29;108107;1279;77017;-78
2022/02/15 09:38:49;;;;;;;8.40;5.50;;;;;;;8.05;74.35;100284.35;108137;1279;71205;-79
2022/02/15 09:41:17;;;;;;;13.30;5.80;;;;;;;8.08;74.24;100273.09;108127;1279;73993;-80
2022/02/15 09:43:44;;;;;;;7.30;4.00;;;;;;;8.11;73.72;100281.08;107899;1279;63242;-80
2022/02/15 09:46:13;;;;;;;10.90;5.70;;;;;;;8.10;73.59;100278.33;108182;1277;60616;-80
2022/02/15 09:48:41;;;;;;;7.40;4.90;;;;;;;8.15;73.26;100283.77;108015;1279;75061;-79
2022/02/15 09:51:09;;;;;;;7.40;4.80;;;;;;;8.16;73.01;100287.86;107996;1279;71427;-79
2022/02/15 09:53:36;;;;;;;9.50;5.40;;;;;;;8.14;72.83;100284.53;108136;1278;74636;-79
2022/02/15 09:56:04;;;;;;;9.50;5.20;;;;;;;8.15;72.94;100289.36;107995;1279;61076;-80
2022/02/15 09:58:32;;;;;;;6.50;3.80;;;;;;;8.13;72.78;100290.85;108018;1279;61814;-78
2022/02/15 10:01:01;;;;;;;9.70;4.80;;;;;;;8.12;72.45;100296.60;108044;1277;76290;-79
2022/02/15 10:03:28;;;;;;;8.40;5.40;;;;;;;8.13;72.46;100291.41;108158;1279;71471;-78
2022/02/15 10:05:55;;;;;;;10.10;5.50;;;;;;;8.16;72.24;100296.92;108146;1277;74184;-80
2022/02/15 10:08:29;;;;;;;9.70;5.40;;;;;;;8.17;71.99;100298.73;108138;1278;62199;-80
2022/02/15 10:11:10;;;;;;;10.10;4.40;;;;;;;8.27;71.86;100298.84;107852;1279;63523;-78
2022/02/15 10:13:42;;;;;;;6.60;3.90;;;;;;;8.36;71.60;100301.35;107807;1279;74510;-78
2022/02/15 10:16:09;;;;;;;7.60;4.40;;;;;;;8.41;71.00;100300.86;108097;1278;71421;-79
2022/02/15 10:18:37;;;;;;;7.30;4.40;;;;;;;8.46;71.12;100299.04;108035;1278;72858;-78
2022/02/15 10:21:05;;;;;;;6.80;3.50;;;;;;;8.51;70.66;100298.85;107984;1279;63547;-79
2022/02/15 10:23:33;;;;;;;5.00;3.40;;;;;;;8.54;70.08;100298.88;107998;1279;60974;-79
2022/02/15 10:26:03;;;;;;;7.20;4.50;;;;;;;8.57;70.32;100294.54;108058;1279;75161;-78
2022/02/15 10:28:32;;;;;;;8.00;4.60;;;;;;;8.65;70.56;100293.48;107745;1279;71453;-78
2022/02/15 10:31:01;;;;;;;6.80;4.40;;;;;;;8.75;70.61;100293.54;108108;1277;73750;-79
2022/02/15 10:33:31;;;;;;;7.90;4.30;;;;;;;8.89;70.44;100289.85;108072;1279;62267;-79
2022/02/15 10:36:07;;;;;;;7.40;4.90;;;;;;;8.96;69.46;100298.77;108148;1277;61669;-79
2022/02/15 10:38:36;;;;;;;7.00;4.00;;;;;;;8.96;69.13;100300.29;108097;1279;76018;-78
2022/02/15 10:41:12;;;;;;;5.60;4.20;;;;;;;8.97;69.06;100303.03;108152;1278;71438;-80
2022/02/15 10:43:50;;;;;;;6.90;4.30;;;;;;;9.11;68.19;100309.23;107888;1279;74159;-78
2022/02/15 10:46:22;;;;;;;8.20;4.60;;;;;;;9.30;68.29;100310.11;108029;1279;62231;-79
2022/02/15 10:48:49;;;;;;;7.10;4.00;;;;;;;9.34;67.67;100312.80;108032;1279;62040;-78
2022/02/15 10:51:17;;;;;;;6.90;4.00;;;;;;;9.34;67.53;100314.88;108160;1279;76183;-79
2022/02/15 10:53:59;;;;;;;7.20;4.30;;;;;;;9.35;67.73;100322.19;108059;1279;72391;-80
2022/02/15 10:56:33;;;;;;;7.20;4.50;;;;;;;9.20;67.16;100316.98;108102;1279;73716;-80
2022/02/15 10:59:03;;;;;;;6.10;3.10;;;;;;;9.15;68.50;100317.98;108064;1279;60416;-79
2022/02/15 11:01:32;;;;;;;5.70;2.80;;;;;;;9.08;68.86;100328.14;108187;1279;60758;-80
2022/02/15 11:03:59;;;;;;;7.30;4.30;;;;;;;9.10;68.06;100322.34;108168;1279;74878;-79
2022/02/15 11:06:28;;;;;;;6.90;4.10;;;;;;;9.31;67.89;100318.61;108105;1279;71437;-79
2022/02/15 11:08:56;;;;;;;5.60;3.70;;;;;;;9.35;67.08;100319.34;108135;1278;73980;-78
2022/02/15 11:11:26;;;;;;;4.80;3.30;;;;;;;9.15;67.54;100319.94;108323;1265;63203;-79
2022/02/15 11:13:57;;;;;;;6.50;4.40;;;;;;;8.92;70.89;100326.14;108242;1276;60562;-79
2022/02/15 11:16:25;;;;;;;6.30;4.30;;;;;;;8.61;71.58;100321.95;107946;1278;74942;-78
2022/02/15 11:18:51;;;;;;;4.90;3.50;;;;;;;8.43;71.95;100319.77;108158;1277;72428;-78
2022/02/15 11:21:24;;;;;;;7.00;4.20;;;;;;;8.31;73.16;100324.17;108215;1277;59110;-77
2022/02/15 11:24:00;;;;;;;6.90;3.90;;;;;;;8.18;73.25;100322.04;107943;1278;62241;-78
2022/02/15 11:26:33;;;;;;;8.60;5.30;;;;;;;8.24;74.12;100319.98;108161;1277;61593;-78
2022/02/15 11:29:01;;;;;;;6.10;4.50;;;;;;;8.37;74.04;100320.11;108142;1277;76109;-79
2022/02/15 11:31:40;;;;;;;8.40;4.30;;;;;;;8.37;74.26;100319.22;108206;1276;71539;-78